Time;durP1;ratioP1;P1;durP2;ratioP2;P2;SDS_P1;SDS_P2;PMS_P1;PMS_P2;Temp;Humidity;BMP_temperature;BMP_pressure;BME280_temperature;BME280_humidity;BME280_pressure;Samples;Min_cycle;Max_cycle;Signal;HPM_P1;HPM_P2
2022/10/17 00:01:10;;;;;;;8.80;3.10;;;14.30;99.90;;;;;;5116567;28;20118;-73
2022/10/17 00:03:37;;;;;;;9.73;3.25;;;14.30;99.90;;;;;;5098812;28;20161;-73
2022/10/17 00:06:11;;;;;;;10.30;3.47;;;14.20;99.90;;;;;;5099065;28;20101;-73
2022/10/17 00:08:39;;;;;;;12.57;3.50;;;14.20;99.90;;;;;;5099129;28;20044;-73
2022/10/17 00:11:16;;;;;;;11.73;3.72;;;14.20;99.90;;;;;;5116968;28;20425;-73
2022/10/17 00:13:43;;;;;;;10.27;3.33;;;14.30;99.90;;;;;;5098825;28;20047;-74
2022/10/17 00:16:08;;;;;;;12.07;3.38;;;14.30;99.90;;;;;;5099231;28;20118;-73
2022/10/17 00:18:34;;;;;;;9.30;3.55;;;14.20;99.90;;;;;;5117171;28;20476;-74
2022/10/17 00:21:00;;;;;;;20.55;5.43;;;14.30;99.90;;;;;;5097266;28;20064;-73
2022/10/17 00:23:29;;;;;;;10.50;3.80;;;14.20;99.90;;;;;;5117171;28;20050;-73
2022/10/17 00:26:04;;;;;;;12.70;3.63;;;14.20;99.90;;;;;;5098795;28;20048;-73
2022/10/17 00:28:30;;;;;;;14.80;4.22;;;14.20;99.90;;;;;;5099084;28;20075;-73
2022/10/17 00:31:01;;;;;;;11.25;4.53;;;14.20;99.90;;;;;;5117126;28;20040;-73
2022/10/17 00:33:28;;;;;;;17.33;4.97;;;14.20;99.90;;;;;;5116614;28;20039;-74
2022/10/17 00:36:08;;;;;;;15.43;4.78;;;14.20;99.90;;;;;;5117024;28;20047;-73
2022/10/17 00:38:34;;;;;;;15.57;5.43;;;14.20;99.90;;;;;;5116751;28;20417;-73
2022/10/17 00:41:01;;;;;;;17.42;6.03;;;14.20;99.90;;;;;;5116767;28;20131;-74
2022/10/17 00:43:28;;;;;;;20.95;7.78;;;14.10;99.90;;;;;;5098970;28;20325;-73
2022/10/17 00:45:55;;;;;;;18.92;6.97;;;14.20;99.90;;;;;;5082322;28;20394;-73
2022/10/17 00:48:23;;;;;;;16.60;6.70;;;14.10;99.90;;;;;;5116960;28;20035;-73
2022/10/17 00:50:49;;;;;;;18.15;6.82;;;14.20;99.90;;;;;;5116869;28;20040;-74
2022/10/17 00:53:16;;;;;;;14.80;6.45;;;14.20;99.90;;;;;;5116840;28;20046;-73
2022/10/17 00:55:48;;;;;;;17.25;6.38;;;14.20;99.90;;;;;;5098553;28;20036;-73
2022/10/17 00:58:14;;;;;;;15.13;5.75;;;14.30;99.90;;;;;;5116885;28;20092;-73
2022/10/17 01:00:41;;;;;;;21.23;5.50;;;14.30;99.90;;;;;;5116436;28;20043;-73
2022/10/17 01:03:07;;;;;;;11.27;4.93;;;14.30;99.90;;;;;;5116384;28;20043;-74
2022/10/17 01:05:33;;;;;;;9.00;4.50;;;14.30;99.90;;;;;;5116767;28;20036;-73
2022/10/17 01:07:59;;;;;;;14.85;4.38;;;14.40;99.90;;;;;;5116828;28;20321;-73
2022/10/17 01:10:33;;;;;;;16.10;4.78;;;14.40;99.90;;;;;;5116796;28;20036;-73
2022/10/17 01:13:18;;;;;;;13.98;4.22;;;14.30;99.90;;;;;;5119963;28;20428;-74
2022/10/17 01:16:13;;;;;;;11.40;4.18;;;14.30;99.90;;;;;;5102203;28;20040;-73
2022/10/17 01:19:01;;;;;;;10.73;3.58;;;14.40;99.90;;;;;;5091644;28;20047;-74
2022/10/17 01:21:38;;;;;;;19.13;4.57;;;14.40;99.90;;;;;;5120198;28;20055;-73
2022/10/17 01:24:21;;;;;;;11.45;3.70;;;14.40;99.90;;;;;;5120405;28;20040;-73
2022/10/17 01:27:16;;;;;;;8.43;3.50;;;14.50;99.90;;;;;;5120013;28;20039;-73
2022/10/17 01:29:56;;;;;;;10.95;3.78;;;14.60;99.90;;;;;;5117547;28;20378;-73
2022/10/17 01:32:36;;;;;;;18.90;4.43;;;14.60;99.90;;;;;;5119866;28;20122;-73
2022/10/17 01:35:09;;;;;;;15.00;4.82;;;14.60;99.90;;;;;;5120087;28;20069;-74
2022/10/17 01:37:47;;;;;;;12.40;4.95;;;14.60;99.90;;;;;;5120191;28;20035;-74
2022/10/17 01:40:24;;;;;;;14.68;4.78;;;14.70;99.90;;;;;;5119773;28;20093;-73
2022/10/17 01:43:10;;;;;;;10.75;4.95;;;14.70;99.90;;;;;;5102097;28;20039;-73
2022/10/17 01:45:52;;;;;;;14.70;5.07;;;14.80;99.90;;;;;;5119846;28;20075;-73
2022/10/17 01:48:22;;;;;;;19.40;4.97;;;14.80;99.90;;;;;;5119960;28;20421;-73
2022/10/17 01:50:57;;;;;;;13.40;4.72;;;14.80;99.90;;;;;;5119918;28;20111;-74
2022/10/17 01:53:33;;;;;;;10.73;4.63;;;14.80;99.90;;;;;;5119507;28;20043;-73
2022/10/17 01:56:02;;;;;;;10.55;5.07;;;14.70;99.90;;;;;;5119783;28;20032;-74
2022/10/17 01:58:32;;;;;;;14.35;5.72;;;14.70;99.90;;;;;;5119727;28;20042;-73
2022/10/17 02:01:04;;;;;;;13.27;5.70;;;14.80;99.90;;;;;;5119694;28;20077;-73
2022/10/17 02:03:33;;;;;;;13.80;5.47;;;14.70;99.90;;;;;;5118896;28;20047;-73
2022/10/17 02:05:59;;;;;;;11.10;5.18;;;14.70;99.90;;;;;;5119293;28;20031;-73
2022/10/17 02:08:27;;;;;;;14.18;5.88;;;14.70;99.90;;;;;;5101163;28;20067;-74
2022/10/17 02:11:03;;;;;;;14.10;5.30;;;14.70;99.90;;;;;;5101429;28;20032;-73
2022/10/17 02:13:47;;;;;;;8.80;4.18;;;14.70;99.90;;;;;;5101119;28;20042;-73
2022/10/17 02:16:36;;;;;;;19.80;6.30;;;14.80;99.90;;;;;;5119380;28;20328;-74
2022/10/17 02:19:11;;;;;;;8.77;5.25;;;14.80;99.90;;;;;;5119328;28;20429;-73
2022/10/17 02:21:46;;;;;;;14.43;5.43;;;14.80;99.90;;;;;;5119012;28;20058;-73
2022/10/17 02:24:31;;;;;;;13.60;5.07;;;14.90;99.90;;;;;;5117993;28;20440;-73
2022/10/17 02:27:12;;;;;;;12.10;6.35;;;14.80;99.90;;;;;;5119181;28;20040;-73
2022/10/17 02:30:10;;;;;;;13.32;5.32;;;14.80;99.90;;;;;;5101197;28;20043;-73
2022/10/17 02:32:41;;;;;;;11.07;4.75;;;14.80;99.90;;;;;;5118654;28;20079;-74
2022/10/17 02:35:11;;;;;;;12.07;6.07;;;14.80;99.90;;;;;;5118718;28;20080;-73
2022/10/17 02:37:37;;;;;;;15.57;6.78;;;14.70;99.90;;;;;;5118966;28;20089;-74
2022/10/17 02:40:04;;;;;;;12.02;5.78;;;14.80;99.90;;;;;;5118635;28;20046;-74
2022/10/17 02:42:31;;;;;;;13.57;6.80;;;14.80;99.90;;;;;;5119420;28;20035;-73
2022/10/17 02:45:00;;;;;;;13.77;6.80;;;14.70;99.90;;;;;;5118562;28;20082;-73
2022/10/17 02:47:33;;;;;;;10.80;5.65;;;14.70;99.90;;;;;;5118797;28;20042;-73
2022/10/17 02:49:59;;;;;;;12.63;6.50;;;14.60;99.90;;;;;;5100730;28;20371;-73
2022/10/17 02:52:35;;;;;;;13.85;7.85;;;14.60;99.90;;;;;;5118695;28;20040;-73
2022/10/17 02:55:31;;;;;;;15.35;6.80;;;14.60;99.90;;;;;;5101061;28;20093;-74
2022/10/17 02:58:05;;;;;;;13.95;6.90;;;14.60;99.90;;;;;;5101634;28;20425;-73
2022/10/17 03:00:32;;;;;;;12.75;6.82;;;14.60;99.90;;;;;;5118577;28;20039;-74
2022/10/17 03:02:57;;;;;;;11.30;7.07;;;14.60;99.90;;;;;;5118091;28;20031;-73
2022/10/17 03:05:26;;;;;;;12.70;7.88;;;14.50;99.90;;;;;;5100092;28;20443;-73
2022/10/17 03:07:53;;;;;;;10.73;6.97;;;14.50;99.90;;;;;;5100069;28;20113;-73
2022/10/17 03:10:19;;;;;;;13.70;8.15;;;14.50;99.90;;;;;;5118338;28;20044;-74
2022/10/17 03:12:45;;;;;;;12.13;8.85;;;14.50;99.90;;;;;;5099850;28;20096;-74
2022/10/17 03:15:11;;;;;;;15.18;7.78;;;14.50;99.90;;;;;;5100339;28;20036;-74
2022/10/17 03:17:37;;;;;;;20.42;9.45;;;14.50;99.90;;;;;;5099912;28;20046;-73
2022/10/17 03:20:05;;;;;;;18.92;9.32;;;14.50;99.90;;;;;;5118157;28;20438;-73
2022/10/17 03:22:30;;;;;;;15.40;8.45;;;14.50;99.90;;;;;;5096161;28;20464;-73
2022/10/17 03:24:56;;;;;;;12.77;8.35;;;14.40;99.90;;;;;;5096289;28;20040;-73
2022/10/17 03:27:22;;;;;;;13.52;7.32;;;14.40;99.90;;;;;;5097640;28;20039;-73
2022/10/17 03:29:47;;;;;;;13.88;8.13;;;14.40;99.90;;;;;;5097613;28;20421;-73
2022/10/17 03:32:13;;;;;;;15.52;8.55;;;14.40;99.90;;;;;;5095817;28;20036;-73
2022/10/17 03:34:39;;;;;;;15.82;9.48;;;14.50;99.90;;;;;;5095972;28;20117;-74
2022/10/17 03:37:04;;;;;;;18.17;9.15;;;14.40;99.90;;;;;;5097152;28;20047;-73
2022/10/17 03:39:30;;;;;;;14.90;8.95;;;14.50;99.90;;;;;;5097366;28;20075;-74
2022/10/17 03:41:55;;;;;;;15.57;8.63;;;14.50;99.90;;;;;;5097393;28;20028;-73
2022/10/17 03:44:21;;;;;;;13.55;8.52;;;14.50;99.90;;;;;;5097346;28;20066;-73
2022/10/17 03:46:47;;;;;;;15.65;8.35;;;14.40;99.90;;;;;;5097288;28;20094;-74
2022/10/17 03:49:12;;;;;;;13.98;8.82;;;14.40;99.90;;;;;;5097256;28;20051;-73
2022/10/17 03:51:38;;;;;;;12.48;9.52;;;14.30;99.90;;;;;;5097015;28;20063;-74
2022/10/17 03:54:04;;;;;;;14.20;9.48;;;14.20;99.90;;;;;;5095956;28;20418;-73
2022/10/17 03:56:29;;;;;;;13.30;9.75;;;14.30;99.90;;;;;;5096082;28;20040;-73
2022/10/17 03:58:55;;;;;;;17.20;9.48;;;14.30;99.90;;;;;;5095835;28;20073;-73
2022/10/17 04:01:22;;;;;;;14.88;9.05;;;14.30;99.90;;;;;;5095786;28;20040;-73
2022/10/17 04:03:52;;;;;;;14.63;8.95;;;14.30;99.90;;;;;;5096698;28;20044;-73
2022/10/17 04:06:19;;;;;;;15.85;10.27;;;14.40;99.90;;;;;;5097138;28;20074;-73
2022/10/17 04:08:45;;;;;;;11.40;8.60;;;14.30;99.90;;;;;;5097013;28;20039;-73
2022/10/17 04:11:17;;;;;;;13.73;9.15;;;14.40;99.90;;;;;;5095619;28;20063;-75
2022/10/17 04:13:44;;;;;;;13.85;9.43;;;14.30;99.90;;;;;;5096951;28;20044;-74
2022/10/17 04:16:15;;;;;;;13.70;10.00;;;14.30;99.90;;;;;;5096949;28;20336;-74
2022/10/17 04:18:41;;;;;;;23.45;9.98;;;14.40;99.90;;;;;;5095592;28;20468;-73
2022/10/17 04:21:07;;;;;;;21.48;12.48;;;14.40;99.90;;;;;;5097184;28;20076;-74
2022/10/17 04:23:33;;;;;;;15.15;9.90;;;14.40;99.90;;;;;;5117012;28;20131;-73
2022/10/17 04:26:02;;;;;;;15.15;9.93;;;14.40;99.90;;;;;;5116685;28;20504;-73
2022/10/17 04:28:28;;;;;;;12.80;9.52;;;14.60;99.90;;;;;;5116675;28;20047;-73
2022/10/17 04:31:10;;;;;;;14.10;9.27;;;14.60;99.90;;;;;;5116867;28;20036;-73
2022/10/17 04:33:36;;;;;;;14.52;10.40;;;14.60;99.90;;;;;;5098564;28;20039;-73
2022/10/17 04:36:11;;;;;;;21.38;10.15;;;14.70;99.90;;;;;;5116855;28;20035;-73
2022/10/17 04:38:37;;;;;;;15.75;10.15;;;14.70;99.90;;;;;;5117076;28;20064;-73
2022/10/17 04:41:06;;;;;;;16.85;10.75;;;14.70;99.90;;;;;;5098968;28;20340;-73
2022/10/17 04:43:33;;;;;;;14.05;10.40;;;14.70;99.90;;;;;;5098748;28;20039;-73
2022/10/17 04:46:00;;;;;;;14.57;11.65;;;14.80;99.90;;;;;;5117471;28;20040;-73
2022/10/17 04:48:26;;;;;;;21.13;11.38;;;14.80;99.90;;;;;;5102727;28;20047;-74
2022/10/17 04:50:57;;;;;;;19.65;13.00;;;14.80;99.90;;;;;;5121086;28;20044;-73
2022/10/17 04:53:23;;;;;;;16.77;10.68;;;14.90;99.90;;;;;;5120994;28;20051;-73
2022/10/17 04:55:49;;;;;;;20.38;12.70;;;14.90;99.90;;;;;;5120991;28;20092;-73
2022/10/17 04:58:15;;;;;;;23.90;13.70;;;15.00;99.90;;;;;;5120665;28;20035;-73
2022/10/17 05:00:41;;;;;;;14.48;11.65;;;15.10;99.90;;;;;;5120900;28;20035;-73
2022/10/17 05:03:06;;;;;;;14.95;10.75;;;15.00;99.90;;;;;;5120371;28;20523;-74
2022/10/17 05:05:32;;;;;;;15.93;12.32;;;15.10;99.90;;;;;;5102473;28;20066;-73
2022/10/17 05:07:58;;;;;;;27.50;15.70;;;15.20;99.90;;;;;;5120776;28;20314;-73
2022/10/17 05:10:23;;;;;;;26.25;15.57;;;15.20;99.90;;;;;;5120380;28;20039;-74
2022/10/17 05:12:50;;;;;;;19.90;12.85;;;15.30;99.90;;;;;;5102602;28;20042;-74
2022/10/17 05:15:15;;;;;;;20.83;13.43;;;15.30;99.90;;;;;;5120488;28;20047;-74
2022/10/17 05:17:41;;;;;;;25.88;16.10;;;15.30;99.90;;;;;;5120253;28;20028;-74
2022/10/17 05:20:08;;;;;;;22.90;14.52;;;15.30;99.90;;;;;;5120286;28;20047;-74
2022/10/17 05:22:33;;;;;;;23.63;14.70;;;15.40;99.90;;;;;;5119962;28;20044;-73
2022/10/17 05:24:59;;;;;;;23.02;14.18;;;15.50;99.90;;;;;;5102044;28;20051;-73
2022/10/17 05:27:25;;;;;;;18.25;12.57;;;15.50;99.90;;;;;;5120373;28;20081;-73
2022/10/17 05:29:50;;;;;;;20.42;13.63;;;15.50;99.90;;;;;;5085085;28;20420;-73
2022/10/17 05:32:16;;;;;;;20.30;13.48;;;15.40;99.90;;;;;;5119878;28;20063;-73
2022/10/17 05:34:42;;;;;;;24.27;15.20;;;15.40;99.90;;;;;;5120121;28;20050;-74
2022/10/17 05:37:07;;;;;;;20.45;13.13;;;15.40;99.90;;;;;;5119850;28;20071;-73
2022/10/17 05:39:33;;;;;;;22.92;13.75;;;15.50;99.90;;;;;;5119802;28;20036;-74
2022/10/17 05:41:59;;;;;;;24.88;16.70;;;15.40;99.90;;;;;;5120090;28;20077;-73
2022/10/17 05:44:24;;;;;;;27.35;16.13;;;15.50;99.90;;;;;;5119709;28;20046;-74
2022/10/17 05:46:50;;;;;;;26.27;15.32;;;15.50;99.90;;;;;;5119981;28;20123;-74
2022/10/17 05:49:16;;;;;;;27.55;15.50;;;15.40;99.90;;;;;;5119952;28;20038;-74
2022/10/17 05:51:43;;;;;;;20.33;13.23;;;15.60;99.90;;;;;;5119588;28;20039;-74
2022/10/17 05:54:08;;;;;;;23.55;14.38;;;15.60;99.90;;;;;;5119767;28;20048;-73
2022/10/17 05:56:35;;;;;;;26.95;16.98;;;15.60;99.90;;;;;;5119474;28;20084;-74
2022/10/17 05:59:01;;;;;;;30.73;17.50;;;15.70;99.90;;;;;;5118323;28;20036;-73
2022/10/17 06:01:27;;;;;;;26.52;15.73;;;15.60;99.90;;;;;;5101399;28;20040;-73
2022/10/17 06:03:52;;;;;;;25.48;15.40;;;15.70;99.90;;;;;;5119248;28;20173;-74
2022/10/17 06:06:18;;;;;;;23.20;14.82;;;15.70;99.90;;;;;;5119397;28;20324;-74
2022/10/17 06:08:44;;;;;;;21.58;15.07;;;15.80;99.90;;;;;;5119233;28;20119;-74
2022/10/17 06:11:10;;;;;;;26.67;17.08;;;15.70;99.90;;;;;;5119273;28;20043;-74
2022/10/17 06:13:37;;;;;;;26.75;16.05;;;15.60;99.90;;;;;;5119380;28;20043;-74
2022/10/17 06:16:03;;;;;;;24.30;14.52;;;15.60;99.90;;;;;;5119425;28;20088;-74
2022/10/17 06:18:29;;;;;;;19.55;14.00;;;15.60;99.90;;;;;;5119036;28;20039;-74
2022/10/17 06:21:01;;;;;;;27.40;16.30;;;15.60;99.90;;;;;;5101208;28;20044;-73
2022/10/17 06:23:27;;;;;;;26.88;17.27;;;15.70;99.90;;;;;;5100956;28;20117;-74
2022/10/17 06:25:52;;;;;;;28.98;16.92;;;15.70;99.90;;;;;;5119252;28;20040;-73
2022/10/17 06:28:18;;;;;;;27.67;17.95;;;15.70;99.90;;;;;;5101113;28;20367;-74
2022/10/17 06:30:44;;;;;;;23.35;16.67;;;15.70;99.90;;;;;;5118807;28;20031;-74
2022/10/17 06:33:10;;;;;;;27.60;16.63;;;15.80;99.90;;;;;;5118623;28;20051;-74
2022/10/17 06:35:36;;;;;;;25.88;15.52;;;15.80;99.90;;;;;;5100692;28;20092;-73
2022/10/17 06:38:02;;;;;;;22.50;14.45;;;15.90;99.90;;;;;;5118688;28;20035;-73
2022/10/17 06:40:29;;;;;;;23.70;15.38;;;15.80;99.90;;;;;;5100646;28;20341;-73
2022/10/17 06:42:55;;;;;;;28.77;17.42;;;15.90;99.90;;;;;;5118844;28;20115;-74
2022/10/17 06:45:21;;;;;;;25.55;16.42;;;16.00;99.90;;;;;;5118846;28;20028;-74
2022/10/17 06:47:48;;;;;;;24.20;16.25;;;15.90;99.90;;;;;;5118552;28;20042;-73
2022/10/17 06:50:13;;;;;;;29.23;16.90;;;15.90;99.90;;;;;;5118456;28;20040;-73
2022/10/17 06:52:39;;;;;;;25.10;15.88;;;15.90;99.90;;;;;;5118462;28;20054;-74
2022/10/17 06:55:05;;;;;;;25.58;17.70;;;16.00;99.90;;;;;;5118639;28;20066;-73
2022/10/17 06:57:31;;;;;;;33.80;18.63;;;16.00;99.90;;;;;;5083678;28;20306;-73
2022/10/17 06:59:56;;;;;;;31.27;16.80;;;16.10;99.90;;;;;;5100296;28;20097;-73
2022/10/17 07:02:23;;;;;;;29.23;18.35;;;16.10;99.90;;;;;;5117838;28;20080;-73
2022/10/17 07:04:49;;;;;;;29.85;17.05;;;16.20;99.90;;;;;;5118109;28;20118;-73
2022/10/17 07:07:15;;;;;;;27.50;17.13;;;16.30;99.90;;;;;;5100224;28;20051;-74
2022/10/17 07:09:40;;;;;;;29.73;18.50;;;16.40;99.90;;;;;;5117607;28;20044;-73
2022/10/17 07:12:07;;;;;;;23.63;16.42;;;16.50;99.90;;;;;;5118032;28;20032;-74
2022/10/17 07:14:34;;;;;;;32.80;18.45;;;16.50;99.90;;;;;;5100149;28;20051;-73
2022/10/17 07:17:00;;;;;;;32.60;17.08;;;16.60;99.90;;;;;;5117942;28;20421;-72
2022/10/17 07:19:26;;;;;;;26.05;16.20;;;16.60;99.90;;;;;;5118196;28;20058;-73
2022/10/17 07:21:52;;;;;;;28.08;17.30;;;16.70;99.90;;;;;;5117874;28;20437;-72
2022/10/17 07:24:18;;;;;;;26.90;16.15;;;16.80;99.90;;;;;;5118097;28;20047;-72
2022/10/17 07:26:44;;;;;;;29.60;17.25;;;16.80;99.90;;;;;;5118033;28;20054;-72
2022/10/17 07:29:10;;;;;;;27.60;16.25;;;16.90;99.90;;;;;;5117973;28;20097;-73
2022/10/17 07:31:36;;;;;;;30.40;18.27;;;16.90;99.90;;;;;;5099648;28;20411;-72
2022/10/17 07:34:02;;;;;;;30.75;17.38;;;16.90;99.90;;;;;;5117434;28;20123;-72
2022/10/17 07:36:28;;;;;;;24.60;16.73;;;16.90;99.90;;;;;;5117875;28;20047;-72
2022/10/17 07:38:53;;;;;;;31.23;17.83;;;16.90;99.90;;;;;;5117829;28;20040;-71
2022/10/17 07:41:19;;;;;;;32.13;17.10;;;17.00;99.90;;;;;;5117952;28;20035;-71
2022/10/17 07:43:45;;;;;;;24.80;14.25;;;17.00;99.90;;;;;;5119961;28;20039;-72
2022/10/17 07:46:11;;;;;;;26.92;16.33;;;17.10;99.90;;;;;;5117519;28;20031;-69
2022/10/17 07:48:38;;;;;;;27.35;16.25;;;17.20;99.90;;;;;;5117644;28;20114;-72
2022/10/17 07:51:07;;;;;;;21.27;14.10;;;17.20;99.90;;;;;;5117326;28;20433;-72
2022/10/17 07:53:39;;;;;;;27.58;16.20;;;17.30;99.90;;;;;;5117510;28;20096;-73
2022/10/17 07:56:09;;;;;;;23.38;14.32;;;17.40;99.90;;;;;;5117345;28;20306;-71
2022/10/17 07:58:36;;;;;;;23.35;14.40;;;17.40;99.90;;;;;;5117489;28;20036;-72
2022/10/17 08:01:07;;;;;;;18.33;12.65;;;17.50;99.90;;;;;;5099524;28;20028;-72
2022/10/17 08:03:33;;;;;;;21.15;14.95;;;17.50;99.90;;;;;;5098816;28;20044;-72
2022/10/17 08:06:00;;;;;;;23.92;14.10;;;17.50;99.90;;;;;;5099460;28;20047;-72
2022/10/17 08:08:26;;;;;;;22.52;13.55;;;17.60;99.90;;;;;;5099480;28;20036;-72
2022/10/17 08:10:55;;;;;;;20.30;13.23;;;17.60;99.90;;;;;;5117057;28;20035;-72
2022/10/17 08:13:23;;;;;;;21.73;12.35;;;17.70;99.90;;;;;;5117244;28;20044;-72
2022/10/17 08:15:49;;;;;;;23.90;13.30;;;17.70;99.90;;;;;;5117307;28;20142;-72
2022/10/17 08:18:15;;;;;;;22.13;12.13;;;17.60;99.90;;;;;;5117039;28;20114;-72
2022/10/17 08:20:41;;;;;;;20.95;12.10;;;17.80;99.90;;;;;;5116150;28;20039;-72
2022/10/17 08:23:07;;;;;;;19.63;10.80;;;17.80;99.90;;;;;;5116788;28;20318;-71
2022/10/17 08:25:32;;;;;;;19.83;12.82;;;17.80;99.90;;;;;;5099277;28;20038;-72
2022/10/17 08:27:58;;;;;;;20.98;12.13;;;17.80;99.90;;;;;;5117457;28;20104;-72
2022/10/17 08:30:24;;;;;;;20.00;11.75;;;17.80;99.90;;;;;;5117183;28;20039;-72
2022/10/17 08:32:50;;;;;;;19.33;12.32;;;17.90;99.90;;;;;;5098843;28;20386;-71
2022/10/17 08:35:16;;;;;;;20.95;12.25;;;17.90;99.90;;;;;;5116782;28;20047;-71
2022/10/17 08:37:41;;;;;;;20.52;12.13;;;17.90;99.90;;;;;;5116781;28;20046;-72
2022/10/17 08:40:23;;;;;;;17.10;10.88;;;18.10;99.90;;;;;;5117109;28;20067;-72
2022/10/17 08:42:52;;;;;;;21.13;12.07;;;18.10;99.90;;;;;;5116783;28;20504;-69
2022/10/17 08:45:34;;;;;;;15.80;10.27;;;18.00;99.90;;;;;;5116775;28;20044;-71
2022/10/17 08:48:04;;;;;;;14.32;10.15;;;18.00;99.90;;;;;;5117024;28;20062;-72
2022/10/17 08:50:47;;;;;;;17.90;11.10;;;18.10;99.90;;;;;;5115469;28;20096;-73
2022/10/17 08:53:40;;;;;;;19.90;10.70;;;18.10;99.90;;;;;;5082810;28;20054;-72
2022/10/17 08:56:14;;;;;;;18.20;10.38;;;18.20;99.90;;;;;;5108107;28;20093;-70
2022/10/17 08:58:40;;;;;;;14.95;10.70;;;18.20;99.90;;;;;;5103680;28;20471;-73
2022/10/17 09:01:34;;;;;;;19.98;11.35;;;18.20;99.90;;;;;;5116706;28;20068;-72
2022/10/17 09:04:24;;;;;;;17.77;11.13;;;18.30;99.90;;;;;;5116122;28;20066;-70
2022/10/17 09:07:11;;;;;;;16.95;10.30;;;18.30;99.90;;;;;;5111119;28;20078;-77
2022/10/17 09:10:00;;;;;;;13.73;9.73;;;18.30;99.90;;;;;;5111333;28;20333;-74
2022/10/17 09:12:49;;;;;;;18.73;10.75;;;18.20;99.90;;;;;;5113294;28;20417;-72
2022/10/17 09:15:45;;;;;;;18.67;10.82;;;18.20;99.90;;;;;;5095047;28;20371;-73
2022/10/17 09:18:37;;;;;;;16.33;10.23;;;18.20;99.90;;;;;;5096569;28;20036;-72
2022/10/17 09:21:26;;;;;;;15.98;11.38;;;18.20;99.90;;;;;;5096181;28;20138;-72
2022/10/17 09:23:56;;;;;;;18.58;11.32;;;18.20;99.90;;;;;;5096000;28;20489;-72
2022/10/17 09:26:23;;;;;;;17.33;10.77;;;18.20;99.90;;;;;;5096786;28;20078;-72
2022/10/17 09:28:57;;;;;;;18.13;10.00;;;18.20;99.90;;;;;;5095911;28;20456;-72
2022/10/17 09:31:27;;;;;;;14.63;10.98;;;18.20;99.90;;;;;;5095953;28;20475;-71
2022/10/17 09:33:56;;;;;;;17.83;9.82;;;18.30;99.90;;;;;;5099084;28;20321;-71
2022/10/17 09:36:26;;;;;;;17.48;10.27;;;18.30;99.90;;;;;;5099515;28;20465;-71
2022/10/17 09:38:58;;;;;;;18.83;10.93;;;18.20;99.90;;;;;;5099756;28;20318;-71
2022/10/17 09:41:36;;;;;;;16.20;8.95;;;18.20;99.90;;;;;;5100035;28;20040;-76
2022/10/17 09:44:17;;;;;;;16.67;9.68;;;18.10;99.90;;;;;;5109921;28;20035;-73
2022/10/17 09:47:24;;;;;;;16.27;11.32;;;18.10;99.90;;;;;;5114189;28;20044;-72
2022/10/17 09:49:51;;;;;;;16.92;10.70;;;18.10;99.90;;;;;;5099353;28;20043;-72
2022/10/17 09:52:21;;;;;;;16.23;10.25;;;18.10;99.90;;;;;;5105762;28;20042;-72
2022/10/17 09:54:53;;;;;;;19.73;11.82;;;18.20;99.90;;;;;;5116367;28;20479;-72
2022/10/17 09:57:20;;;;;;;21.70;10.80;;;18.20;99.90;;;;;;5117669;28;20046;-72
2022/10/17 09:59:54;;;;;;;15.43;11.65;;;18.10;99.90;;;;;;5118485;28;20324;-71
2022/10/17 10:02:22;;;;;;;21.15;12.90;;;18.00;99.90;;;;;;5119392;28;20031;-71
2022/10/17 10:04:56;;;;;;;22.33;13.63;;;18.10;99.90;;;;;;5119698;28;20375;-72
2022/10/17 10:07:24;;;;;;;21.00;13.45;;;18.20;99.90;;;;;;5119250;28;20035;-71
2022/10/17 10:09:51;;;;;;;25.70;14.05;;;18.10;99.90;;;;;;5119536;28;20043;-71
2022/10/17 10:12:31;;;;;;;22.00;14.93;;;18.10;99.90;;;;;;5119194;28;20039;-72
2022/10/17 10:14:57;;;;;;;25.08;14.88;;;18.10;99.90;;;;;;5119436;28;20371;-72
2022/10/17 10:17:41;;;;;;;26.75;15.48;;;17.90;99.90;;;;;;5119128;28;20028;-72
2022/10/17 10:20:33;;;;;;;33.20;17.55;;;17.80;99.90;;;;;;5119390;28;20324;-71
2022/10/17 10:23:17;;;;;;;31.25;18.08;;;17.70;99.90;;;;;;5118901;28;20055;-71
2022/10/17 10:26:01;;;;;;;29.13;17.52;;;17.70;99.90;;;;;;5119271;28;20076;-71
2022/10/17 10:28:34;;;;;;;30.23;17.90;;;17.60;99.90;;;;;;5119233;28;20107;-71
2022/10/17 10:31:04;;;;;;;28.30;18.55;;;17.60;99.90;;;;;;5119214;28;20070;-72
2022/10/17 10:33:32;;;;;;;39.63;20.08;;;17.60;99.90;;;;;;5118637;28;20053;-72
2022/10/17 10:36:00;;;;;;;44.03;21.60;;;17.60;99.90;;;;;;5118785;28;20043;-72
2022/10/17 10:38:27;;;;;;;32.35;18.98;;;17.70;99.90;;;;;;5119035;28;20032;-72
2022/10/17 10:40:56;;;;;;;29.45;19.48;;;17.60;99.90;;;;;;5119018;28;20324;-71
2022/10/17 10:43:33;;;;;;;35.53;20.23;;;17.70;99.90;;;;;;5118560;28;20332;-71
2022/10/17 10:45:59;;;;;;;39.97;19.65;;;17.80;99.90;;;;;;5118750;28;20336;-72
2022/10/17 10:48:38;;;;;;;28.85;18.13;;;17.80;99.90;;;;;;5118849;28;20028;-73
2022/10/17 10:51:18;;;;;;;32.70;17.85;;;17.80;99.90;;;;;;5119454;28;20043;-71
2022/10/17 10:54:22;;;;;;;51.28;22.65;;;18.00;99.90;;;;;;5118774;28;20046;-70
2022/10/17 10:56:55;;;;;;;36.55;18.60;;;18.00;99.90;;;;;;5118665;28;20074;-70
2022/10/17 10:59:33;;;;;;;50.40;22.63;;;18.20;99.90;;;;;;5118638;28;20085;-70
2022/10/17 11:02:22;;;;;;;35.05;19.08;;;18.20;99.90;;;;;;5100636;28;20043;-71
2022/10/17 11:04:54;;;;;;;46.78;21.50;;;18.30;99.90;;;;;;5118569;28;20051;-71
2022/10/17 11:07:29;;;;;;;55.70;23.67;;;18.40;99.90;;;;;;5118139;28;20432;-72
2022/10/17 11:10:21;;;;;;;41.72;20.33;;;18.50;99.90;;;;;;5118440;28;20047;-72
2022/10/17 11:13:02;;;;;;;77.10;27.77;;;18.50;99.90;;;;;;5118338;28;20120;-70
2022/10/17 11:15:51;;;;;;;61.30;25.30;;;18.60;99.90;;;;;;5118264;28;20036;-71
2022/10/17 11:18:40;;;;;;;40.03;20.42;;;18.50;99.90;;;;;;5118259;28;20039;-75
2022/10/17 11:21:19;;;;;;;64.45;25.77;;;18.60;99.90;;;;;;5082713;28;20036;-72
2022/10/17 11:23:55;;;;;;;52.25;22.67;;;18.60;99.90;;;;;;5117992;28;20054;-72
2022/10/17 11:26:30;;;;;;;41.60;21.48;;;18.60;99.90;;;;;;5118595;28;20047;-72
2022/10/17 11:28:59;;;;;;;49.25;23.08;;;18.60;99.90;;;;;;5119969;28;20306;-84
2022/10/17 11:31:32;;;;;;;28.63;15.88;;;18.30;99.90;;;;;;5084504;28;20039;-74
2022/10/17 11:34:07;;;;;;;52.00;22.90;;;18.10;99.90;;;;;;5117629;28;20104;-71
2022/10/17 11:36:36;;;;;;;42.17;20.08;;;18.20;99.90;;;;;;5117679;28;20485;-78
2022/10/17 11:39:04;;;;;;;37.80;18.63;;;18.20;99.90;;;;;;5118052;28;20035;-79
2022/10/17 11:41:54;;;;;;;39.53;18.35;;;18.10;99.90;;;;;;5100037;28;20046;-86
2022/10/17 11:44:36;;;;;;;39.97;19.75;;;18.10;99.90;;;;;;5099848;28;20328;-70
2022/10/17 11:47:43;;;;;;;23.67;14.75;;;18.10;99.90;;;;;;5117684;28;20114;-71
2022/10/17 11:50:30;;;;;;;48.72;21.38;;;18.20;99.90;;;;;;5015145;28;20042;-81
2022/10/17 11:53:10;;;;;;;57.05;24.20;;;18.30;99.90;;;;;;5097921;28;20082;-70
2022/10/17 11:55:37;;;;;;;47.15;20.70;;;18.30;99.90;;;;;;5117597;28;20098;-71
2022/10/17 11:58:24;;;;;;;47.50;20.83;;;18.30;99.90;;;;;;5117582;28;20047;-70
2022/10/17 12:01:08;;;;;;;49.65;22.52;;;18.30;99.90;;;;;;5117658;28;20078;-70
2022/10/17 12:03:41;;;;;;;35.90;18.65;;;18.20;99.90;;;;;;5116780;28;20420;-70
2022/10/17 12:06:13;;;;;;;48.05;22.58;;;18.40;99.90;;;;;;5117197;28;20085;-71
2022/10/17 12:09:02;;;;;;;46.42;19.48;;;18.40;99.90;;;;;;5117454;28;20044;-71
2022/10/17 12:11:37;;;;;;;35.80;18.45;;;18.50;99.90;;;;;;5117665;28;20077;-71
2022/10/17 12:14:25;;;;;;;36.92;18.58;;;18.40;99.90;;;;;;5116992;28;20039;-71
2022/10/17 12:16:51;;;;;;;43.88;20.60;;;18.30;99.90;;;;;;5116944;28;20115;-71
2022/10/17 12:19:22;;;;;;;31.08;16.27;;;18.30;99.90;;;;;;5117458;28;20085;-84
2022/10/17 12:22:05;;;;;;;31.20;18.10;;;18.20;99.90;;;;;;5099068;28;20391;-68
2022/10/17 12:24:41;;;;;;;34.55;18.60;;;18.20;99.90;;;;;;5116963;28;20498;-70
2022/10/17 12:27:22;;;;;;;33.75;20.15;;;18.30;99.90;;;;;;5117256;28;20039;-72
2022/10/17 12:29:48;;;;;;;29.80;16.60;;;18.40;99.90;;;;;;5117194;28;20043;-71
2022/10/17 12:32:14;;;;;;;34.78;19.50;;;18.40;99.90;;;;;;5099061;28;20376;-72
2022/10/17 12:34:54;;;;;;;20.08;13.77;;;18.50;99.90;;;;;;5116645;28;20051;-71
2022/10/17 12:37:41;;;;;;;28.65;16.05;;;18.50;99.90;;;;;;5117211;28;20044;-71
2022/10/17 12:40:33;;;;;;;21.45;14.30;;;18.50;99.90;;;;;;5117069;28;20093;-72
2022/10/17 12:42:59;;;;;;;23.00;15.02;;;18.60;99.90;;;;;;5103416;28;20052;-70
2022/10/17 12:45:46;;;;;;;22.15;12.90;;;18.60;99.90;;;;;;5116726;28;20436;-72
2022/10/17 12:48:32;;;;;;;28.45;12.88;;;18.60;99.90;;;;;;5117000;28;20043;-72
2022/10/17 12:51:08;;;;;;;16.30;11.43;;;18.50;99.90;;;;;;5116734;28;20075;-72
2022/10/17 12:53:45;;;;;;;21.17;12.60;;;18.30;99.90;;;;;;5117057;28;20079;-87